2022/06/28 08:50 EDVE 280850Z 32007KT 280V030 9999 FEW032 20/10 Q1022